createdAt,value
2018-07-29T00:00:05.860Z,100596.46
2018-07-29T00:02:35.057Z,100594.76
2018-07-29T00:05:03.186Z,100592.83
2018-07-29T00:07:31.191Z,100597.02
2018-07-29T00:09:59.182Z,100595.02
2018-07-29T00:12:27.242Z,100594.62
2018-07-29T00:14:55.233Z,100598.36
2018-07-29T00:17:23.225Z,100599.36
2018-07-29T00:19:51.315Z,100601.12
2018-07-29T00:22:19.325Z,100599.13
2018-07-29T00:24:47.321Z,100595.89
2018-07-29T00:27:15.316Z,100606.22
2018-07-29T00:29:43.316Z,100604.48
2018-07-29T00:32:11.294Z,100609.32
2018-07-29T00:34:39.348Z,100614.03
2018-07-29T00:37:07.400Z,100616.09
2018-07-29T00:39:35.428Z,100613.73
2018-07-29T00:42:03.541Z,100616.73
2018-07-29T00:44:31.540Z,100621.95
2018-07-29T00:46:59.570Z,100616.33
2018-07-29T00:49:27.561Z,100616.91
2018-07-29T00:51:55.553Z,100617.67
2018-07-29T00:54:23.548Z,100613.45
2018-07-29T00:56:51.588Z,100610.54
2018-07-29T00:59:19.588Z,100607.16
2018-07-29T01:01:47.592Z,100606.70
2018-07-29T01:04:15.648Z,100608.44
2018-07-29T01:06:43.629Z,100610.67
2018-07-29T01:09:12.848Z,100615.94
2018-07-29T01:11:41.078Z,100620.49
2018-07-29T01:14:09.105Z,100616.08
2018-07-29T01:16:37.148Z,100622.67
2018-07-29T01:19:05.437Z,100624.31
2018-07-29T01:21:33.450Z,100622.77
2018-07-29T01:24:01.436Z,100618.66
2018-07-29T01:26:29.439Z,100621.91
2018-07-29T01:28:57.456Z,100625.61
2018-07-29T01:31:25.541Z,100621.80
2018-07-29T01:33:53.560Z,100613.61
2018-07-29T01:36:21.606Z,100613.14
2018-07-29T01:38:49.753Z,100615.72
2018-07-29T01:41:17.786Z,100614.64
2018-07-29T01:43:45.796Z,100613.48
2018-07-29T01:46:13.820Z,100612.38
2018-07-29T01:48:42.129Z,100613.67
2018-07-29T01:51:10.621Z,100613.70
2018-07-29T01:53:38.664Z,100619.83
2018-07-29T01:56:06.788Z,100622.57
2018-07-29T01:58:34.816Z,100622.10
2018-07-29T02:01:02.840Z,100627.98
2018-07-29T02:03:30.816Z,100620.27
2018-07-29T02:05:58.825Z,100624.68
2018-07-29T02:08:26.844Z,100626.41
2018-07-29T02:10:54.844Z,100626.75
2018-07-29T02:13:22.832Z,100625.91
2018-07-29T02:15:50.841Z,100631.77
2018-07-29T02:18:18.864Z,100619.59
2018-07-29T02:20:46.957Z,100622.12
2018-07-29T02:23:14.968Z,100622.84
2018-07-29T02:25:42.984Z,100620.06
2018-07-29T02:28:10.963Z,100621.60
2018-07-29T02:30:38.958Z,100618.39
2018-07-29T02:33:06.936Z,100615.65
2018-07-29T02:35:34.952Z,100626.22
2018-07-29T02:38:02.928Z,100624.48
2018-07-29T02:40:30.945Z,100620.16
2018-07-29T02:42:58.966Z,100626.34
2018-07-29T02:45:26.963Z,100624.47
2018-07-29T02:47:54.964Z,100620.59
2018-07-29T02:50:23.029Z,100629.68
2018-07-29T02:52:51.018Z,100619.65
2018-07-29T02:55:19.024Z,100627.80
2018-07-29T02:57:47.024Z,100630.34
2018-07-29T03:00:15.028Z,100633.78
2018-07-29T03:02:43.024Z,100638.16
2018-07-29T03:05:11.222Z,100635.86
2018-07-29T03:07:39.237Z,100640.87
2018-07-29T03:10:07.248Z,100634.54
2018-07-29T03:12:35.277Z,100635.30
2018-07-29T03:15:03.303Z,100637.84
2018-07-29T03:17:31.308Z,100634.47
2018-07-29T03:19:59.336Z,100632.34
2018-07-29T03:22:27.347Z,100634.25
2018-07-29T03:24:55.352Z,100633.05
2018-07-29T03:27:23.345Z,100626.87
2018-07-29T03:29:51.365Z,100631.08
2018-07-29T03:32:19.364Z,100631.24
2018-07-29T03:34:47.538Z,100627.73
2018-07-29T03:37:15.493Z,100627.02
2018-07-29T03:39:43.503Z,100628.98
2018-07-29T03:42:11.500Z,100633.08
2018-07-29T03:44:39.523Z,100631.87
2018-07-29T03:47:07.574Z,100636.65
2018-07-29T03:49:35.738Z,100633.34
2018-07-29T03:52:03.886Z,100634.44
2018-07-29T03:54:31.888Z,100635.44
2018-07-29T03:56:59.932Z,100638.11
2018-07-29T03:59:27.985Z,100636.66
2018-07-29T04:01:55.981Z,100646.42
2018-07-29T04:04:23.969Z,100647.88
2018-07-29T04:06:52.022Z,100648.81
2018-07-29T04:09:20.081Z,100647.33
2018-07-29T04:11:48.064Z,100642.77
2018-07-29T04:14:17.141Z,100645.56
2018-07-29T04:16:45.156Z,100650.91
2018-07-29T04:19:13.180Z,100654.63
2018-07-29T04:21:41.251Z,100656.12
2018-07-29T04:24:09.652Z,100653.32
2018-07-29T04:26:38.436Z,100658.95
2018-07-29T04:29:06.624Z,100667.02
2018-07-29T04:31:34.664Z,100660.76
2018-07-29T04:34:02.685Z,100658.17
2018-07-29T04:36:30.712Z,100671.31
2018-07-29T04:38:58.733Z,100666.02
2018-07-29T04:41:26.772Z,100660.23
2018-07-29T04:43:54.764Z,100668.33
2018-07-29T04:46:22.772Z,100662.79
2018-07-29T04:48:50.752Z,100665.61
2018-07-29T04:51:18.824Z,100669.70
2018-07-29T04:53:46.812Z,100666.86
2018-07-29T04:56:15.177Z,100662.42
2018-07-29T04:58:43.217Z,100669.62
2018-07-29T05:01:11.149Z,100664.09
2018-07-29T05:03:39.215Z,100666.20
2018-07-29T05:06:07.277Z,100670.97
2018-07-29T05:08:35.435Z,100670.80
2018-07-29T05:11:03.444Z,100667.27
2018-07-29T05:13:31.458Z,100673.02
2018-07-29T05:15:59.477Z,100672.98
2018-07-29T05:18:27.618Z,100672.39
2018-07-29T05:21:02.288Z,100677.14
2018-07-29T05:23:30.312Z,100676.86
2018-07-29T05:25:58.410Z,100680.92
2018-07-29T05:28:26.352Z,100680.45
2018-07-29T05:30:54.364Z,100681.52
2018-07-29T05:33:22.380Z,100682.98
2018-07-29T05:35:50.364Z,100690.52
2018-07-29T05:38:18.456Z,100693.16
2018-07-29T05:40:46.469Z,100691.39
2018-07-29T05:43:14.549Z,100702.47
2018-07-29T05:45:42.687Z,100702.08
2018-07-29T05:48:10.759Z,100702.36
2018-07-29T05:50:38.856Z,100707.80
2018-07-29T05:53:06.930Z,100708.87
2018-07-29T05:55:35.137Z,100701.02
2018-07-29T05:58:03.096Z,100711.31
2018-07-29T06:00:31.065Z,100709.84
2018-07-29T06:02:59.125Z,100719.41
2018-07-29T06:05:27.141Z,100719.95
2018-07-29T06:07:55.159Z,100727.25
2018-07-29T06:10:23.141Z,100728.81
2018-07-29T06:12:51.177Z,100737.63
2018-07-29T06:15:19.246Z,100735.94
2018-07-29T06:17:47.289Z,100728.23
2018-07-29T06:20:15.306Z,100739.86
2018-07-29T06:22:43.308Z,100749.66
2018-07-29T06:25:11.360Z,100750.38
2018-07-29T06:27:39.324Z,100749.89
2018-07-29T06:30:07.797Z,100753.08
2018-07-29T06:32:37.000Z,100755.59
2018-07-29T06:35:05.056Z,100759.47
2018-07-29T06:37:33.224Z,100757.98
2018-07-29T06:40:01.222Z,100749.61
2018-07-29T06:42:29.221Z,100757.58
2018-07-29T06:44:59.557Z,100755.20
2018-07-29T06:47:27.940Z,100757.43
2018-07-29T06:49:56.030Z,100766.13
2018-07-29T06:52:31.089Z,100761.16
2018-07-29T06:54:59.100Z,100767.80
2018-07-29T06:57:27.392Z,100769.83
2018-07-29T06:59:55.377Z,100775.34
2018-07-29T07:02:23.683Z,100780.19
2018-07-29T07:04:51.700Z,100780.11
2018-07-29T07:07:19.705Z,100770.76
2018-07-29T07:09:47.684Z,100769.73
2018-07-29T07:12:15.700Z,100777.20
2018-07-29T07:14:43.733Z,100779.06
2018-07-29T07:17:11.931Z,100781.55
2018-07-29T07:19:39.970Z,100782.22
2018-07-29T07:22:07.969Z,100784.28
2018-07-29T07:24:36.021Z,100779.27
2018-07-29T07:27:04.116Z,100777.25
2018-07-29T07:29:32.085Z,100774.55
2018-07-29T07:32:00.105Z,100772.71
2018-07-29T07:34:28.344Z,100765.92
2018-07-29T07:36:56.456Z,100779.31
2018-07-29T07:39:24.541Z,100768.45
2018-07-29T07:41:52.764Z,100775.22
2018-07-29T07:44:21.035Z,100772.34
2018-07-29T07:46:49.229Z,100775.86
2018-07-29T07:49:17.293Z,100777.50
2018-07-29T07:51:45.276Z,100766.39
2018-07-29T07:56:54.753Z,100771.95
2018-07-29T07:59:22.769Z,100758.47
2018-07-29T08:01:51.167Z,100755.47
2018-07-29T08:04:19.073Z,100760.64
2018-07-29T08:06:47.112Z,100756.80
2018-07-29T08:09:15.217Z,100759.06
2018-07-29T08:11:44.188Z,100757.11
2018-07-29T08:14:12.309Z,100759.16
2018-07-29T08:16:40.569Z,100755.34
2018-07-29T08:19:08.576Z,100753.16
2018-07-29T08:21:36.696Z,100749.87
2018-07-29T08:24:06.032Z,100750.67
2018-07-29T08:26:34.123Z,100753.61
2018-07-29T08:29:02.244Z,100756.00
2018-07-29T08:31:30.247Z,100750.41
2018-07-29T08:33:58.236Z,100745.11
2018-07-29T08:36:26.274Z,100740.39
2018-07-29T08:38:54.306Z,100743.45
2018-07-29T08:41:22.255Z,100732.04
2018-07-29T08:43:50.248Z,100741.33
2018-07-29T08:46:19.241Z,100733.41
2018-07-29T08:48:47.325Z,100739.56
2018-07-29T08:51:15.389Z,100740.03
2018-07-29T08:53:43.464Z,100736.02
2018-07-29T08:56:11.552Z,100742.55
2018-07-29T08:58:39.588Z,100730.39
2018-07-29T09:01:07.995Z,100734.44
2018-07-29T09:03:36.029Z,100738.01
2018-07-29T09:06:04.034Z,100738.09
2018-07-29T09:08:32.095Z,100734.94
2018-07-29T09:11:00.164Z,100729.91
2018-07-29T09:13:28.228Z,100726.89
2018-07-29T09:15:56.392Z,100725.91
2018-07-29T09:18:24.391Z,100724.11
2018-07-29T09:20:52.504Z,100715.76
2018-07-29T09:23:20.516Z,100712.56
2018-07-29T09:25:49.520Z,100722.83
2018-07-29T09:28:17.584Z,100716.59
2018-07-29T09:30:46.703Z,100715.67
2018-07-29T09:33:14.644Z,100716.02
2018-07-29T09:35:42.654Z,100703.38
2018-07-29T09:38:10.637Z,100704.55
2018-07-29T09:40:38.649Z,100708.50
2018-07-29T09:43:06.717Z,100704.05
2018-07-29T09:45:34.882Z,100698.72
2018-07-29T09:48:02.793Z,100701.11
2018-07-29T09:50:30.799Z,100700.67
2018-07-29T09:52:58.800Z,100701.76
2018-07-29T09:55:26.918Z,100704.66
2018-07-29T09:57:54.912Z,100688.28
2018-07-29T10:00:27.127Z,100679.36
2018-07-29T10:02:56.185Z,100678.44
2018-07-29T10:05:24.160Z,100674.16
2018-07-29T10:07:52.193Z,100669.61
2018-07-29T10:10:20.410Z,100664.94
2018-07-29T10:12:48.512Z,100667.83
2018-07-29T10:15:16.502Z,100674.10
2018-07-29T10:17:44.554Z,100660.14
2018-07-29T10:20:12.644Z,100661.43
2018-07-29T10:22:40.657Z,100660.87
2018-07-29T10:25:08.710Z,100651.27
2018-07-29T10:27:36.776Z,100655.17
2018-07-29T10:30:05.390Z,100652.64
2018-07-29T10:32:33.608Z,100654.05
2018-07-29T10:35:01.611Z,100649.77
2018-07-29T10:37:29.660Z,100645.78
2018-07-29T10:39:57.701Z,100643.59
2018-07-29T10:42:25.731Z,100638.88
2018-07-29T10:44:53.829Z,100643.27
2018-07-29T10:47:21.885Z,100642.98
2018-07-29T10:49:50.096Z,100632.12
2018-07-29T10:52:18.151Z,100629.72
2018-07-29T10:54:46.140Z,100625.47
2018-07-29T10:57:14.304Z,100625.78
2018-07-29T10:59:42.332Z,100624.77
2018-07-29T11:02:10.406Z,100620.94
2018-07-29T11:04:38.405Z,100635.52
2018-07-29T11:07:06.467Z,100626.02
2018-07-29T11:09:34.464Z,100619.48
2018-07-29T11:12:02.481Z,100616.28
2018-07-29T11:14:30.478Z,100606.34
2018-07-29T11:16:58.510Z,100621.94
2018-07-29T11:19:26.500Z,100620.08
2018-07-29T11:21:54.503Z,100610.75
2018-07-29T11:24:22.484Z,100613.70
2018-07-29T11:26:50.515Z,100602.05
2018-07-29T11:29:18.585Z,100595.80
2018-07-29T11:31:46.564Z,100601.38
2018-07-29T11:34:14.548Z,100596.81
2018-07-29T11:36:42.556Z,100592.36
2018-07-29T11:39:11.188Z,100598.42
2018-07-29T11:41:39.195Z,100588.91
2018-07-29T11:44:07.632Z,100590.81
2018-07-29T11:46:35.692Z,100593.54
2018-07-29T11:49:04.089Z,100588.45
2018-07-29T11:51:32.158Z,100589.09
2018-07-29T11:54:00.212Z,100588.17
2018-07-29T11:56:29.436Z,100582.50
2018-07-29T11:58:57.446Z,100586.55
2018-07-29T12:01:26.818Z,100580.67
2018-07-29T12:03:54.834Z,100570.07
2018-07-29T12:06:22.825Z,100568.00
2018-07-29T12:08:50.871Z,100581.09
2018-07-29T12:11:18.918Z,100573.06
2018-07-29T12:13:46.993Z,100581.95
2018-07-29T12:16:15.155Z,100572.77
2018-07-29T12:18:43.313Z,100569.22
2018-07-29T12:21:11.314Z,100574.56
2018-07-29T12:23:39.315Z,100559.30
2018-07-29T12:26:07.425Z,100564.75
2018-07-29T12:28:35.415Z,100558.95
2018-07-29T12:31:03.433Z,100550.82
2018-07-29T12:33:31.437Z,100551.95
2018-07-29T12:35:59.720Z,100551.12
2018-07-29T12:38:27.792Z,100555.02
2018-07-29T12:40:55.824Z,100541.02
2018-07-29T12:43:24.050Z,100549.65
2018-07-29T12:45:52.068Z,100544.19
2018-07-29T12:48:20.114Z,100545.55
2018-07-29T12:50:48.114Z,100546.30
2018-07-29T12:53:16.150Z,100538.09
2018-07-29T12:55:44.152Z,100541.92
2018-07-29T12:58:12.276Z,100538.48
2018-07-29T13:00:40.284Z,100535.75
2018-07-29T13:03:08.384Z,100522.00
2018-07-29T13:05:37.469Z,100524.64
2018-07-29T13:08:05.716Z,100521.82
2018-07-29T13:10:33.745Z,100524.55
2018-07-29T13:13:01.739Z,100517.52
2018-07-29T13:15:29.728Z,100514.73
2018-07-29T13:17:57.740Z,100509.86
2018-07-29T13:20:25.720Z,100506.44
2018-07-29T13:22:53.704Z,100502.67
2018-07-29T13:25:21.792Z,100504.46
2018-07-29T13:27:49.800Z,100490.34
2018-07-29T13:30:17.797Z,100494.70
2018-07-29T13:32:45.848Z,100492.30
2018-07-29T13:35:13.790Z,100489.66
2018-07-29T13:37:41.768Z,100490.31
2018-07-29T13:40:09.938Z,100487.93
2018-07-29T13:42:38.168Z,100478.80
2018-07-29T13:45:08.064Z,100475.35
2018-07-29T13:47:36.364Z,100468.72
2018-07-29T13:50:05.728Z,100471.29
2018-07-29T13:52:33.848Z,100469.27
2018-07-29T13:55:01.913Z,100477.30
2018-07-29T13:57:30.004Z,100467.06
2018-07-29T13:59:58.084Z,100469.73
2018-07-29T14:02:26.114Z,100461.22
2018-07-29T14:04:54.133Z,100467.41
2018-07-29T14:07:22.147Z,100462.33
2018-07-29T14:09:50.164Z,100465.89
2018-07-29T14:12:18.196Z,100460.72
2018-07-29T14:14:46.173Z,100451.48
2018-07-29T14:17:14.216Z,100461.30
2018-07-29T14:19:42.500Z,100460.06
2018-07-29T14:22:10.488Z,100457.17
2018-07-29T14:24:38.528Z,100457.17
2018-07-29T14:27:06.737Z,100466.56
2018-07-29T14:29:34.737Z,100450.95
2018-07-29T14:32:02.752Z,100448.52
2018-07-29T14:34:30.864Z,100449.42
2018-07-29T14:36:58.935Z,100453.11
2018-07-29T14:39:26.995Z,100448.41
2018-07-29T14:41:58.031Z,100445.72
2018-07-29T14:44:26.019Z,100438.33
2018-07-29T14:46:54.097Z,100429.40
2018-07-29T14:49:22.093Z,100435.72
2018-07-29T14:51:50.209Z,100441.31
2018-07-29T14:54:19.296Z,100430.42
2018-07-29T14:56:47.327Z,100431.48
2018-07-29T14:59:15.412Z,100430.42
2018-07-29T15:01:43.566Z,100423.16
2018-07-29T15:04:11.677Z,100423.83
2018-07-29T15:06:40.700Z,100412.66
2018-07-29T15:09:09.838Z,100412.16
2018-07-29T15:11:37.849Z,100417.42
2018-07-29T15:14:06.186Z,100411.25
2018-07-29T15:16:34.169Z,100420.03
2018-07-29T15:19:02.216Z,100413.63
2018-07-29T15:21:30.273Z,100409.84
2018-07-29T15:23:58.673Z,100415.12
2018-07-29T15:26:26.712Z,100403.64
2018-07-29T15:28:54.795Z,100407.52
2018-07-29T15:31:22.768Z,100396.53
2018-07-29T15:33:50.836Z,100400.92
2018-07-29T15:36:18.760Z,100394.64
2018-07-29T15:38:46.804Z,100393.84
2018-07-29T15:41:14.796Z,100394.98
2018-07-29T15:43:42.788Z,100397.03
2018-07-29T15:46:10.786Z,100389.17
2018-07-29T15:48:38.798Z,100390.66
2018-07-29T15:51:06.843Z,100389.48
2018-07-29T15:53:34.892Z,100387.29
2018-07-29T15:56:02.952Z,100375.66
2018-07-29T15:58:31.045Z,100379.58
2018-07-29T16:01:00.141Z,100377.06
2018-07-29T16:03:28.216Z,100381.27
2018-07-29T16:05:56.189Z,100372.86
2018-07-29T16:08:24.192Z,100367.78
2018-07-29T16:10:52.207Z,100368.86
2018-07-29T16:13:20.400Z,100376.02
2018-07-29T16:15:48.420Z,100369.84
2018-07-29T16:18:16.578Z,100372.50
2018-07-29T16:20:44.585Z,100380.77
2018-07-29T16:23:12.602Z,100375.30
2018-07-29T16:25:40.593Z,100374.11
2018-07-29T16:28:08.616Z,100385.14
2018-07-29T16:30:36.700Z,100381.47
2018-07-29T16:33:04.700Z,100379.34
2018-07-29T16:35:32.733Z,100373.73
2018-07-29T16:38:00.736Z,100377.79
2018-07-29T16:40:28.815Z,100369.34
2018-07-29T16:42:56.859Z,100370.64
2018-07-29T16:45:24.851Z,100380.58
2018-07-29T16:47:52.938Z,100375.52
2018-07-29T16:50:21.059Z,100380.13
2018-07-29T16:52:49.112Z,100379.08
2018-07-29T16:55:17.223Z,100378.59
2018-07-29T16:57:45.354Z,100388.28
2018-07-29T17:00:13.481Z,100389.66
2018-07-29T17:02:41.558Z,100386.70
2018-07-29T17:05:09.561Z,100386.21
2018-07-29T17:07:37.695Z,100384.68
2018-07-29T17:10:05.721Z,100391.45
2018-07-29T17:12:33.741Z,100393.09
2018-07-29T17:15:01.729Z,100389.28
2018-07-29T17:17:29.736Z,100397.95
2018-07-29T17:19:57.805Z,100397.77
2018-07-29T17:22:25.925Z,100389.94
2018-07-29T17:24:53.970Z,100400.45
2018-07-29T17:27:22.013Z,100394.58
2018-07-29T17:29:50.141Z,100399.50
2018-07-29T17:32:18.329Z,100401.69
2018-07-29T17:34:46.441Z,100403.80
2018-07-29T17:37:14.465Z,100407.64
2018-07-29T17:39:42.574Z,100403.37
2018-07-29T17:42:10.556Z,100407.21
2018-07-29T17:44:38.660Z,100413.41
2018-07-29T17:47:06.681Z,100414.52
2018-07-29T17:49:34.729Z,100419.58
2018-07-29T17:52:02.725Z,100423.36
2018-07-29T17:54:30.724Z,100422.77
2018-07-29T17:56:58.796Z,100423.03
2018-07-29T17:59:26.852Z,100422.75
2018-07-29T18:01:54.912Z,100425.92
2018-07-29T18:04:22.961Z,100428.65
2018-07-29T18:06:51.108Z,100421.47
2018-07-29T18:09:19.180Z,100425.62
2018-07-29T18:11:47.254Z,100429.41
2018-07-29T18:14:15.237Z,100428.62
2018-07-29T18:16:43.253Z,100425.63
2018-07-29T18:19:11.240Z,100431.37
2018-07-29T18:21:39.241Z,100432.84
2018-07-29T18:24:07.239Z,100433.05
2018-07-29T18:26:35.229Z,100441.37
2018-07-29T18:29:03.273Z,100439.18
2018-07-29T18:31:31.293Z,100440.95
2018-07-29T18:33:59.329Z,100450.73
2018-07-29T18:36:27.331Z,100454.66
2018-07-29T18:38:55.352Z,100458.02
2018-07-29T18:41:23.388Z,100464.56
2018-07-29T18:43:51.395Z,100461.22
2018-07-29T18:46:19.484Z,100457.19
2018-07-29T18:48:47.502Z,100458.64
2018-07-29T18:51:15.560Z,100457.89
2018-07-29T18:53:44.762Z,100462.25
2018-07-29T18:56:12.872Z,100463.47
2018-07-29T18:58:40.908Z,100462.58
2018-07-29T19:01:08.976Z,100459.31
2018-07-29T19:03:36.976Z,100461.44
2018-07-29T19:06:05.065Z,100470.87
2018-07-29T19:08:33.040Z,100473.59
2018-07-29T19:11:02.096Z,100476.78
2018-07-29T19:13:30.212Z,100475.45
2018-07-29T19:15:58.245Z,100480.67
2018-07-29T19:18:26.321Z,100479.66
2018-07-29T19:20:54.633Z,100478.53
2018-07-29T19:23:22.637Z,100486.22
2018-07-29T19:25:50.747Z,100489.62
2018-07-29T19:28:18.776Z,100483.83
2018-07-29T19:30:46.799Z,100484.98
2018-07-29T19:33:14.888Z,100491.37
2018-07-29T19:35:42.889Z,100488.16
2018-07-29T19:38:10.876Z,100488.08
2018-07-29T19:40:38.890Z,100485.21
2018-07-29T19:43:06.920Z,100479.98
2018-07-29T19:45:35.005Z,100480.55
2018-07-29T19:48:03.130Z,100479.57
2018-07-29T19:50:31.126Z,100470.23
2018-07-29T19:52:59.221Z,100476.00
2018-07-29T19:55:27.479Z,100481.20
2018-07-29T19:57:55.697Z,100476.20
2018-07-29T20:00:23.717Z,100479.70
2018-07-29T20:02:51.784Z,100483.51
2018-07-29T20:05:19.784Z,100487.20
2018-07-29T20:07:47.788Z,100491.16
2018-07-29T20:10:15.777Z,100490.23
2018-07-29T20:12:43.999Z,100489.52
2018-07-29T20:15:12.049Z,100486.70
2018-07-29T20:17:40.101Z,100490.38
2018-07-29T20:20:08.725Z,100489.34
2018-07-29T20:22:36.784Z,100493.70
2018-07-29T20:25:05.176Z,100489.66
2018-07-29T20:27:33.186Z,100494.69
2018-07-29T20:30:01.218Z,100495.71
2018-07-29T20:32:29.262Z,100501.11
2018-07-29T20:34:57.251Z,100499.20
2018-07-29T20:37:25.270Z,100504.58
2018-07-29T20:39:53.372Z,100505.27
2018-07-29T20:42:25.534Z,100500.77
2018-07-29T20:44:53.554Z,100499.38
2018-07-29T20:47:21.593Z,100496.36
2018-07-29T20:49:49.632Z,100499.79
2018-07-29T20:52:17.660Z,100498.44
2018-07-29T20:54:45.685Z,100503.52
2018-07-29T20:57:13.773Z,100501.48
2018-07-29T20:59:41.751Z,100504.25
2018-07-29T21:02:09.762Z,100508.45
2018-07-29T21:04:37.831Z,100505.52
2018-07-29T21:07:05.860Z,100509.29
2018-07-29T21:09:33.896Z,100510.69
2018-07-29T21:12:02.916Z,100511.36
2018-07-29T21:14:30.908Z,100513.42
2018-07-29T21:16:59.006Z,100515.11
2018-07-29T21:19:27.034Z,100517.29
2018-07-29T21:21:55.033Z,100517.94
2018-07-29T21:24:23.386Z,100515.76
2018-07-29T21:26:55.325Z,100516.46
2018-07-29T21:29:23.323Z,100515.56
2018-07-29T21:31:51.356Z,100520.01
2018-07-29T21:34:19.420Z,100514.60
2018-07-29T21:36:47.426Z,100521.54
2018-07-29T21:39:15.512Z,100513.73
2018-07-29T21:41:43.522Z,100513.20
2018-07-29T21:44:11.595Z,100516.70
2018-07-29T21:46:39.603Z,100515.78
2018-07-29T21:49:07.665Z,100519.71
2018-07-29T21:51:35.744Z,100524.76
2018-07-29T21:54:03.688Z,100521.63
2018-07-29T21:56:31.821Z,100522.43
2018-07-29T21:58:59.831Z,100522.43
2018-07-29T22:01:27.878Z,100520.46
2018-07-29T22:03:55.888Z,100522.81
2018-07-29T22:06:23.907Z,100528.42
2018-07-29T22:08:51.934Z,100523.23
2018-07-29T22:11:19.976Z,100529.66
2018-07-29T22:13:48.011Z,100524.71
2018-07-29T22:16:16.029Z,100528.77
2018-07-29T22:18:44.047Z,100533.98
2018-07-29T22:21:12.029Z,100536.26
2018-07-29T22:23:40.045Z,100529.80
2018-07-29T22:26:14.145Z,100527.98
2018-07-29T22:28:51.423Z,100523.23
2018-07-29T22:31:25.761Z,100531.85
2018-07-29T22:33:53.759Z,100533.78
2018-07-29T22:36:22.827Z,100526.80
2018-07-29T22:38:50.829Z,100529.20
2018-07-29T22:41:18.969Z,100522.14
2018-07-29T22:43:46.995Z,100525.11
2018-07-29T22:46:15.044Z,100529.05
2018-07-29T22:48:43.052Z,100525.16
2018-07-29T22:51:11.059Z,100526.20
2018-07-29T22:53:39.068Z,100531.34
2018-07-29T22:56:07.069Z,100523.80
2018-07-29T22:58:35.089Z,100526.94
2018-07-29T23:01:03.096Z,100528.48
2018-07-29T23:03:31.101Z,100533.13
2018-07-29T23:05:59.091Z,100517.62
2018-07-29T23:08:27.588Z,100523.72
2018-07-29T23:10:55.611Z,100521.54
2018-07-29T23:13:24.721Z,100519.23
2018-07-29T23:15:52.717Z,100522.94
2018-07-29T23:18:20.744Z,100521.59
2018-07-29T23:20:48.740Z,100521.84
2018-07-29T23:23:16.893Z,100513.95
2018-07-29T23:25:44.906Z,100508.50
2018-07-29T23:28:12.924Z,100506.63
2018-07-29T23:30:41.027Z,100507.63
2018-07-29T23:33:09.046Z,100507.63
2018-07-29T23:35:37.032Z,100506.63
2018-07-29T23:38:05.086Z,100506.07
2018-07-29T23:40:33.077Z,100500.97
2018-07-29T23:43:01.120Z,100502.14
2018-07-29T23:45:29.113Z,100506.88
2018-07-29T23:47:57.155Z,100502.27
2018-07-29T23:50:25.165Z,100508.89
2018-07-29T23:52:54.873Z,100512.98
2018-07-29T23:55:22.880Z,100509.56
2018-07-29T23:57:51.921Z,100511.78
